Time;durP1;ratioP1;P1;durP2;ratioP2;P2;SDS_P1;SDS_P2;PMS_P1;PMS_P2;Temp;Humidity;BMP_temperature;BMP_pressure;BME280_temperature;BME280_humidity;BME280_pressure;Samples;Min_cycle;Max_cycle;Signal;HPM_P1;HPM_P2
2022/09/08 00:02:24;;;;;;;17.77;15.88;;;17.50;99.90;;;;;;5098907;28;20054;-49
2022/09/08 00:04:50;;;;;;;17.58;13.60;;;17.50;99.90;;;;;;5098374;28;20039;-52
2022/09/08 00:07:16;;;;;;;17.15;14.07;;;17.50;99.90;;;;;;5098791;28;20107;-51
2022/09/08 00:09:42;;;;;;;16.08;14.18;;;17.60;99.90;;;;;;5097623;28;20066;-49
2022/09/08 00:12:11;;;;;;;16.35;13.63;;;17.50;99.90;;;;;;5099038;28;20040;-52
2022/09/08 00:14:37;;;;;;;17.70;14.30;;;17.50;99.90;;;;;;5097063;28;20048;-50
2022/09/08 00:17:02;;;;;;;17.33;13.77;;;17.50;99.90;;;;;;5087106;28;20139;-50
2022/09/08 00:19:28;;;;;;;16.60;13.13;;;17.40;99.90;;;;;;5078262;28;20045;-53
2022/09/08 00:21:54;;;;;;;16.25;13.68;;;17.50;99.90;;;;;;5076481;28;20378;-53
2022/09/08 00:24:20;;;;;;;16.63;13.52;;;17.50;99.90;;;;;;5076952;28;20719;-50
2022/09/08 00:26:46;;;;;;;16.40;13.70;;;17.40;99.90;;;;;;5077300;28;20052;-52
2022/09/08 00:29:11;;;;;;;17.95;13.77;;;17.40;99.90;;;;;;5076926;28;20120;-50
2022/09/08 00:31:39;;;;;;;17.08;14.85;;;17.50;99.90;;;;;;5077756;28;20053;-51
2022/09/08 00:34:05;;;;;;;18.33;15.52;;;17.40;99.90;;;;;;5077822;28;20051;-50
2022/09/08 00:36:31;;;;;;;21.73;16.55;;;17.40;99.90;;;;;;5077951;28;20036;-52
2022/09/08 00:38:58;;;;;;;17.45;15.60;;;17.40;99.90;;;;;;5091870;28;20036;-49
2022/09/08 00:41:24;;;;;;;17.40;15.40;;;17.40;99.90;;;;;;5097448;28;20048;-49
2022/09/08 00:43:59;;;;;;;19.45;16.67;;;17.40;99.90;;;;;;5097517;28;20040;-51
2022/09/08 00:46:33;;;;;;;17.98;15.68;;;17.40;99.90;;;;;;5098221;28;20044;-52
2022/09/08 00:49:08;;;;;;;21.33;15.95;;;17.30;99.90;;;;;;5098060;28;20040;-52
2022/09/08 00:51:38;;;;;;;21.00;16.92;;;17.40;99.90;;;;;;5097319;28;20036;-49
2022/09/08 00:54:05;;;;;;;18.23;15.95;;;17.30;99.90;;;;;;5097888;28;20499;-49
2022/09/08 00:56:31;;;;;;;22.30;16.55;;;17.30;99.90;;;;;;5097210;28;20082;-52
2022/09/08 00:59:00;;;;;;;21.60;16.63;;;17.20;99.90;;;;;;5098157;28;20048;-50
2022/09/08 01:01:25;;;;;;;19.40;16.40;;;17.30;99.90;;;;;;5097595;28;20036;-49
2022/09/08 01:03:52;;;;;;;19.13;17.00;;;17.30;99.90;;;;;;5096723;28;20040;-51
2022/09/08 01:12:46;;;;;;;23.05;17.45;;;17.20;99.90;;;;;;5097567;28;20077;-50
2022/09/08 01:15:21;;;;;;;24.95;18.85;;;17.20;99.90;;;;;;5097805;28;20127;-52
2022/09/08 01:17:52;;;;;;;20.63;17.35;;;17.20;99.90;;;;;;5081289;28;20044;-50
2022/09/08 01:20:27;;;;;;;23.27;17.73;;;17.20;99.90;;;;;;5077706;28;20040;-52
2022/09/08 01:23:14;;;;;;;25.02;19.48;;;17.10;99.90;;;;;;5077097;28;20060;-51
2022/09/08 01:25:49;;;;;;;21.35;18.42;;;17.20;99.90;;;;;;5077078;28;20100;-52
2022/09/08 01:28:22;;;;;;;22.50;19.25;;;17.10;99.90;;;;;;5077431;28;20084;-51
2022/09/08 01:30:49;;;;;;;22.83;20.13;;;17.10;99.90;;;;;;5076833;28;20040;-53
2022/09/08 01:33:16;;;;;;;22.88;20.10;;;17.10;99.90;;;;;;5077477;28;20493;-53
2022/09/08 01:35:43;;;;;;;24.45;20.40;;;17.10;99.90;;;;;;5076941;28;20067;-49
2022/09/08 01:38:10;;;;;;;25.40;20.90;;;17.10;99.90;;;;;;5084055;28;20078;-52
2022/09/08 01:40:38;;;;;;;25.23;20.95;;;17.10;99.90;;;;;;5097234;28;20103;-50
2022/09/08 01:43:08;;;;;;;24.67;21.13;;;17.10;99.90;;;;;;5096947;28;20084;-51
2022/09/08 01:45:34;;;;;;;25.75;22.02;;;17.10;99.90;;;;;;5097280;28;20079;-52
2022/09/08 01:48:00;;;;;;;26.02;21.70;;;17.00;99.90;;;;;;5096671;28;20048;-51
2022/09/08 01:50:26;;;;;;;25.38;22.13;;;17.00;99.90;;;;;;5097833;28;20055;-51
2022/09/08 01:52:52;;;;;;;27.13;22.80;;;17.10;99.90;;;;;;5099494;28;20071;-52
2022/09/08 01:55:17;;;;;;;30.10;23.70;;;17.00;99.90;;;;;;5101156;28;20047;-51
2022/09/08 01:57:43;;;;;;;29.35;24.30;;;17.00;99.90;;;;;;5101088;28;20064;-52
2022/09/08 02:00:10;;;;;;;27.17;23.55;;;17.00;99.90;;;;;;5100767;28;20186;-51
2022/09/08 02:02:36;;;;;;;27.35;24.27;;;17.00;99.90;;;;;;5101137;28;20048;-53
2022/09/08 02:05:01;;;;;;;30.27;23.75;;;17.00;99.90;;;;;;5100491;28;20058;-49
2022/09/08 02:07:27;;;;;;;28.20;25.00;;;17.00;99.90;;;;;;5101220;28;20523;-50
2022/09/08 02:09:53;;;;;;;29.52;25.42;;;17.00;99.90;;;;;;5100014;28;20036;-51
2022/09/08 02:12:19;;;;;;;29.20;26.05;;;17.00;99.90;;;;;;5101098;28;20036;-50
2022/09/08 02:14:45;;;;;;;29.38;26.15;;;17.00;99.90;;;;;;5100752;28;20068;-52
2022/09/08 02:17:12;;;;;;;30.13;26.25;;;17.00;99.90;;;;;;5089346;28;20054;-49
2022/09/08 02:19:37;;;;;;;30.95;27.67;;;17.10;99.90;;;;;;5080565;28;20040;-49
2022/09/08 02:22:03;;;;;;;32.03;27.63;;;17.10;99.90;;;;;;5079786;28;20101;-50
2022/09/08 02:24:29;;;;;;;29.23;26.10;;;17.20;99.90;;;;;;5080701;28;20028;-52
2022/09/08 02:26:55;;;;;;;32.85;27.50;;;17.20;99.90;;;;;;5079794;28;20048;-49
2022/09/08 02:29:21;;;;;;;31.20;27.13;;;17.20;99.90;;;;;;5080441;28;20053;-50
2022/09/08 02:31:47;;;;;;;31.75;28.38;;;17.30;99.90;;;;;;5080175;28;20041;-50
2022/09/08 02:34:12;;;;;;;36.50;29.08;;;17.40;99.90;;;;;;5079900;28;20055;-51
2022/09/08 02:36:38;;;;;;;34.72;29.63;;;17.30;99.90;;;;;;5080314;28;20047;-51
2022/09/08 02:39:04;;;;;;;33.45;29.60;;;17.40;99.90;;;;;;5095058;28;20062;-50
2022/09/08 02:41:29;;;;;;;33.60;28.48;;;17.40;99.90;;;;;;5100682;28;20488;-49
2022/09/08 02:43:56;;;;;;;33.45;29.73;;;17.50;99.90;;;;;;5099548;28;20048;-50
2022/09/08 02:46:22;;;;;;;34.15;28.45;;;17.50;99.90;;;;;;5100525;28;20166;-49
2022/09/08 02:48:48;;;;;;;36.97;29.38;;;17.50;99.90;;;;;;5100330;28;20059;-50
2022/09/08 02:51:17;;;;;;;36.55;29.42;;;17.60;99.90;;;;;;5099826;28;20032;-52
2022/09/08 02:53:43;;;;;;;33.03;28.63;;;17.60;99.90;;;;;;5098931;28;20099;-53
2022/09/08 02:56:09;;;;;;;34.38;28.85;;;17.60;99.90;;;;;;5099358;28;20075;-51
2022/09/08 02:58:36;;;;;;;34.72;29.40;;;17.60;99.90;;;;;;5099920;28;20044;-50
2022/09/08 03:01:02;;;;;;;34.80;28.42;;;17.70;99.90;;;;;;5099489;28;20052;-50
2022/09/08 03:03:28;;;;;;;33.60;27.98;;;17.70;99.90;;;;;;5099562;28;20051;-52
2022/09/08 03:05:53;;;;;;;37.13;31.65;;;17.70;99.90;;;;;;5098429;28;20044;-52
2022/09/08 03:08:20;;;;;;;35.47;29.70;;;17.70;99.90;;;;;;5099999;28;20079;-50
2022/09/08 03:10:48;;;;;;;35.55;30.00;;;17.80;99.90;;;;;;5099653;28;20040;-51
2022/09/08 03:13:14;;;;;;;36.05;31.10;;;17.70;99.90;;;;;;5099175;28;20073;-52
2022/09/08 03:15:41;;;;;;;35.80;31.00;;;17.80;99.90;;;;;;5100122;28;20448;-51
2022/09/08 03:18:07;;;;;;;37.33;33.20;;;17.80;99.90;;;;;;5080303;28;20066;-52
2022/09/08 03:20:35;;;;;;;37.95;31.40;;;17.80;99.90;;;;;;5080049;28;20040;-52
2022/09/08 03:23:02;;;;;;;37.95;30.70;;;17.80;99.90;;;;;;5079444;28;20401;-52
2022/09/08 03:25:28;;;;;;;39.33;32.03;;;17.80;99.90;;;;;;5079123;28;20044;-48
2022/09/08 03:27:54;;;;;;;34.80;30.80;;;17.80;99.90;;;;;;5079240;28;20044;-52
2022/09/08 03:30:20;;;;;;;36.63;31.52;;;17.80;99.90;;;;;;5078849;28;20149;-50
2022/09/08 03:32:46;;;;;;;35.67;31.42;;;17.80;99.90;;;;;;5079497;28;20044;-52
2022/09/08 03:35:15;;;;;;;36.65;32.05;;;17.80;99.90;;;;;;5078694;28;20045;-51
2022/09/08 03:37:41;;;;;;;37.95;33.03;;;17.70;99.90;;;;;;5083753;28;20075;-53
2022/09/08 03:40:10;;;;;;;39.83;33.40;;;17.70;99.90;;;;;;5098904;28;20048;-49
2022/09/08 03:42:38;;;;;;;36.97;32.90;;;17.70;99.90;;;;;;5099309;28;20136;-49
2022/09/08 03:45:07;;;;;;;41.72;35.22;;;17.70;99.90;;;;;;5099452;28;20043;-51
2022/09/08 03:47:33;;;;;;;40.55;34.88;;;17.70;99.90;;;;;;5098567;28;20055;-52
2022/09/08 03:49:59;;;;;;;40.45;33.60;;;17.70;99.90;;;;;;5099294;28;20044;-52
2022/09/08 03:52:26;;;;;;;40.08;34.10;;;17.70;99.90;;;;;;5098664;28;20682;-51
2022/09/08 03:54:52;;;;;;;43.40;35.42;;;17.60;99.90;;;;;;5099071;28;20032;-49
2022/09/08 03:57:27;;;;;;;42.92;35.65;;;17.60;99.90;;;;;;5098848;28;20051;-50
2022/09/08 03:59:56;;;;;;;41.28;35.13;;;17.60;99.90;;;;;;5098352;28;20069;-51
2022/09/08 04:02:22;;;;;;;43.25;37.13;;;17.60;99.90;;;;;;5098952;28;20040;-51
2022/09/08 04:04:50;;;;;;;42.95;35.20;;;17.50;99.90;;;;;;5098204;28;20071;-53
2022/09/08 04:07:17;;;;;;;40.88;36.22;;;17.50;99.90;;;;;;5098898;28;20106;-50
2022/09/08 04:09:43;;;;;;;43.38;36.08;;;17.60;99.90;;;;;;5098018;28;20169;-50
2022/09/08 04:12:09;;;;;;;42.47;37.28;;;17.50;99.90;;;;;;5098870;28;20040;-53
2022/09/08 04:14:35;;;;;;;46.65;37.63;;;17.60;99.90;;;;;;5098525;28;20119;-49
2022/09/08 04:17:01;;;;;;;46.17;38.75;;;17.60;99.90;;;;;;5087823;28;20076;-52
2022/09/08 04:19:27;;;;;;;45.30;38.28;;;17.60;99.90;;;;;;5078395;28;20050;-50
2022/09/08 04:21:53;;;;;;;44.67;37.55;;;17.60;99.90;;;;;;5076121;28;20112;-51
2022/09/08 04:24:19;;;;;;;45.22;37.60;;;17.50;99.90;;;;;;5078502;28;20083;-49
2022/09/08 04:26:45;;;;;;;45.95;39.40;;;17.50;99.90;;;;;;5077838;28;20040;-49
2022/09/08 04:29:11;;;;;;;46.47;39.97;;;17.60;99.90;;;;;;5078513;28;20090;-51
2022/09/08 04:31:37;;;;;;;43.20;37.83;;;17.50;99.90;;;;;;5078142;28;20048;-52
2022/09/08 04:34:04;;;;;;;49.67;38.88;;;17.60;99.90;;;;;;5077991;28;20129;-52
2022/09/08 04:36:30;;;;;;;45.05;38.50;;;17.50;99.90;;;;;;5077917;28;20040;-50
2022/09/08 04:38:57;;;;;;;46.38;38.95;;;17.60;99.90;;;;;;5091858;28;20063;-51
2022/09/08 04:41:24;;;;;;;44.78;37.35;;;17.60;99.90;;;;;;5098423;28;20044;-53
2022/09/08 04:43:50;;;;;;;49.75;41.67;;;17.60;99.90;;;;;;5097654;28;20096;-49
2022/09/08 04:46:17;;;;;;;48.13;39.75;;;17.50;99.90;;;;;;5098485;28;20043;-49
2022/09/08 04:48:44;;;;;;;47.50;40.30;;;17.60;99.90;;;;;;5097887;28;20074;-52
2022/09/08 04:51:12;;;;;;;49.05;41.20;;;17.60;99.90;;;;;;5097995;28;20062;-50
2022/09/08 04:53:38;;;;;;;47.35;41.88;;;17.60;99.90;;;;;;5098279;28;20051;-52
2022/09/08 04:56:05;;;;;;;51.88;43.22;;;17.60;99.90;;;;;;5097618;28;20051;-52
2022/09/08 04:58:33;;;;;;;52.47;41.10;;;17.60;99.90;;;;;;5098064;28;20727;-50
2022/09/08 05:01:04;;;;;;;49.55;42.67;;;17.60;99.90;;;;;;5097377;28;20065;-52
2022/09/08 05:03:29;;;;;;;48.40;40.03;;;17.60;99.90;;;;;;5098150;28;20044;-53
2022/09/08 05:05:55;;;;;;;51.90;41.75;;;17.60;99.90;;;;;;5097997;28;20047;-51
2022/09/08 05:08:21;;;;;;;52.05;41.97;;;17.60;99.90;;;;;;5097815;28;20090;-52
2022/09/08 05:10:49;;;;;;;49.67;41.88;;;17.60;99.90;;;;;;5097814;28;20028;-52
2022/09/08 05:13:14;;;;;;;53.83;43.65;;;17.60;99.90;;;;;;5097510;28;20134;-50
2022/09/08 05:15:40;;;;;;;50.38;41.75;;;17.60;99.90;;;;;;5098057;28;20047;-52
2022/09/08 05:18:06;;;;;;;53.42;43.72;;;17.60;99.90;;;;;;5078417;28;20041;-52
2022/09/08 05:20:31;;;;;;;53.25;43.63;;;17.60;99.90;;;;;;5077964;28;20840;-51
2022/09/08 05:22:57;;;;;;;54.40;43.92;;;17.70;99.90;;;;;;5077495;28;20068;-50
2022/09/08 05:25:23;;;;;;;52.60;44.33;;;17.60;99.90;;;;;;5077513;28;20076;-50
2022/09/08 05:27:48;;;;;;;53.03;44.47;;;17.70;99.90;;;;;;5080139;28;20444;-50
2022/09/08 05:30:14;;;;;;;51.60;43.13;;;17.70;99.90;;;;;;5081114;28;20037;-50
2022/09/08 05:32:41;;;;;;;54.95;44.95;;;17.70;99.90;;;;;;5081318;28;20101;-51
2022/09/08 05:35:07;;;;;;;52.72;44.28;;;17.70;99.90;;;;;;5080904;28;20048;-52
2022/09/08 05:37:34;;;;;;;52.70;44.17;;;17.70;99.90;;;;;;5084698;28;20085;-51
2022/09/08 05:39:59;;;;;;;52.28;43.78;;;17.70;99.90;;;;;;5101212;28;20043;-52
2022/09/08 05:42:25;;;;;;;51.08;42.63;;;17.80;99.90;;;;;;5101604;28;20032;-53
2022/09/08 05:44:51;;;;;;;51.10;42.78;;;17.80;99.90;;;;;;5101719;28;20055;-52
2022/09/08 05:47:17;;;;;;;51.30;43.50;;;17.80;99.90;;;;;;5100583;28;20076;-52
2022/09/08 05:49:43;;;;;;;50.88;44.45;;;17.80;99.90;;;;;;5101613;28;20427;-52
2022/09/08 05:52:09;;;;;;;51.55;42.72;;;17.90;99.90;;;;;;5100823;28;20040;-52
2022/09/08 05:54:35;;;;;;;52.08;44.88;;;17.90;99.90;;;;;;5101714;28;20046;-50
2022/09/08 05:57:00;;;;;;;51.95;44.10;;;17.90;99.90;;;;;;5101010;28;20044;-50
2022/09/08 05:59:26;;;;;;;51.97;43.78;;;17.90;99.90;;;;;;5101226;28;20048;-50
2022/09/08 06:01:52;;;;;;;56.33;45.30;;;17.90;99.90;;;;;;5099835;28;20404;-51
2022/09/08 06:04:18;;;;;;;52.72;43.80;;;17.90;99.90;;;;;;5100656;28;20040;-50
2022/09/08 06:06:46;;;;;;;55.63;45.47;;;17.90;99.90;;;;;;5100986;28;20697;-52
2022/09/08 06:09:12;;;;;;;55.55;44.88;;;17.90;99.90;;;;;;5100337;28;20047;-51
2022/09/08 06:11:39;;;;;;;54.22;46.47;;;17.90;99.90;;;;;;5099852;28;20048;-52
2022/09/08 06:14:05;;;;;;;53.75;45.63;;;17.90;99.90;;;;;;5100684;28;20032;-52
2022/09/08 06:16:32;;;;;;;53.83;44.15;;;17.90;99.90;;;;;;5095480;28;20036;-49
2022/09/08 06:19:00;;;;;;;55.03;45.80;;;17.90;99.90;;;;;;5080617;28;20044;-49
2022/09/08 06:21:30;;;;;;;54.55;45.50;;;17.90;99.90;;;;;;5079920;28;20037;-52
2022/09/08 06:23:59;;;;;;;53.95;46.17;;;17.90;99.90;;;;;;5080282;28;20060;-52
2022/09/08 06:26:42;;;;;;;55.40;43.53;;;17.90;99.90;;;;;;5079581;28;20048;-52
2022/09/08 06:29:43;;;;;;;52.72;45.13;;;17.90;99.90;;;;;;5080317;28;20049;-48
2022/09/08 06:32:23;;;;;;;54.88;46.00;;;17.90;99.90;;;;;;5068427;28;20055;-51
2022/09/08 06:34:58;;;;;;;57.53;47.80;;;17.90;99.90;;;;;;5079712;28;20041;-53
2022/09/08 06:37:42;;;;;;;54.22;46.42;;;17.80;99.90;;;;;;5081937;28;20044;-50
2022/09/08 06:40:16;;;;;;;57.55;46.65;;;17.80;99.90;;;;;;5099233;28;20040;-52
2022/09/08 06:43:12;;;;;;;55.40;44.22;;;17.80;99.90;;;;;;5100033;28;20048;-52
2022/09/08 06:45:52;;;;;;;83.28;61.40;;;17.70;99.90;;;;;;5100157;28;20048;-52
2022/09/08 06:48:32;;;;;;;53.08;43.75;;;17.60;99.90;;;;;;5099925;28;20050;-50
2022/09/08 06:51:06;;;;;;;55.85;43.97;;;17.50;99.90;;;;;;5100397;28;20036;-52
2022/09/08 06:53:55;;;;;;;51.15;42.25;;;17.50;99.90;;;;;;5100569;28;20054;-51
2022/09/08 06:56:30;;;;;;;56.63;43.28;;;17.50;99.90;;;;;;5095824;28;20062;-50
2022/09/08 06:59:02;;;;;;;58.70;44.58;;;17.60;99.90;;;;;;5100621;28;20139;-51
2022/09/08 07:01:54;;;;;;;60.40;44.88;;;17.60;99.90;;;;;;5099921;28;20040;-53
2022/09/08 07:04:38;;;;;;;57.28;45.67;;;17.60;99.90;;;;;;5099316;28;20063;-53
2022/09/08 07:07:23;;;;;;;60.15;46.45;;;17.50;99.90;;;;;;5100087;28;20048;-54
2022/09/08 07:09:58;;;;;;;63.10;46.40;;;17.50;99.90;;;;;;5099483;28;20036;-54
2022/09/08 07:13:01;;;;;;;60.72;47.55;;;17.50;99.90;;;;;;5099994;28;20120;-53
2022/09/08 07:15:53;;;;;;;63.70;48.65;;;17.50;99.90;;;;;;5099803;28;20047;-53
2022/09/08 07:18:35;;;;;;;64.05;49.03;;;17.50;99.90;;;;;;5078814;28;20052;-54
2022/09/08 07:21:11;;;;;;;63.40;49.58;;;17.50;99.90;;;;;;5079489;28;20048;-53
2022/09/08 07:23:39;;;;;;;64.88;50.38;;;17.50;99.90;;;;;;5079670;28;20041;-54
2022/09/08 07:26:11;;;;;;;61.75;48.53;;;17.50;99.90;;;;;;5079047;28;20044;-55
2022/09/08 07:28:44;;;;;;;70.25;51.17;;;17.50;99.90;;;;;;5079654;28;20044;-55
2022/09/08 07:31:19;;;;;;;67.53;51.22;;;17.50;99.90;;;;;;5079156;28;20145;-56
2022/09/08 07:33:49;;;;;;;65.18;49.33;;;17.50;99.90;;;;;;5077731;28;20083;-56
2022/09/08 07:36:29;;;;;;;55.50;44.78;;;17.40;99.90;;;;;;5079533;28;20036;-56
2022/09/08 07:39:03;;;;;;;57.35;44.72;;;17.40;99.90;;;;;;5092808;28;20481;-56
2022/09/08 07:41:40;;;;;;;59.22;45.47;;;17.20;99.90;;;;;;5099712;28;20055;-57
2022/09/08 07:44:13;;;;;;;53.60;42.42;;;17.30;99.90;;;;;;5098719;28;20075;-56
2022/09/08 07:46:53;;;;;;;57.20;43.90;;;17.40;99.90;;;;;;5099208;28;20028;-57
2022/09/08 07:49:46;;;;;;;55.05;43.03;;;17.30;99.90;;;;;;5099209;28;20403;-56
2022/09/08 07:52:39;;;;;;;57.10;42.17;;;17.30;99.90;;;;;;5098448;28;20040;-56
2022/09/08 07:55:27;;;;;;;57.05;42.72;;;17.30;99.90;;;;;;5099209;28;20048;-56
2022/09/08 07:58:14;;;;;;;60.00;44.03;;;17.30;99.90;;;;;;5099007;28;20032;-56
2022/09/08 08:00:40;;;;;;;53.55;40.78;;;17.10;99.90;;;;;;5098048;28;20055;-57
2022/09/08 08:03:28;;;;;;;55.28;41.95;;;17.20;99.90;;;;;;5099405;28;20040;-57
2022/09/08 08:06:04;;;;;;;51.13;40.45;;;17.20;99.90;;;;;;5098870;28;20068;-56
2022/09/08 08:08:39;;;;;;;56.78;41.25;;;17.20;99.90;;;;;;5098368;28;20050;-56
2022/09/08 08:11:28;;;;;;;63.35;44.22;;;17.20;99.90;;;;;;5098837;28;20070;-57
2022/09/08 08:14:20;;;;;;;60.67;42.40;;;17.20;99.90;;;;;;5098462;28;20104;-57
2022/09/08 08:17:24;;;;;;;58.63;43.38;;;17.10;99.90;;;;;;5091028;28;20068;-57
2022/09/08 08:19:58;;;;;;;57.85;39.55;;;16.90;99.90;;;;;;5077174;28;20123;-57
2022/09/08 08:22:48;;;;;;;52.80;38.50;;;16.90;99.90;;;;;;5077857;28;20104;-57
2022/09/08 08:25:25;;;;;;;53.65;37.30;;;16.80;99.90;;;;;;5078261;28;20048;-57
2022/09/08 08:28:17;;;;;;;41.95;32.08;;;16.80;99.90;;;;;;5078326;28;20671;-57
2022/09/08 08:31:13;;;;;;;36.40;28.98;;;17.00;99.90;;;;;;5077705;28;20044;-57
2022/09/08 08:33:52;;;;;;;30.25;24.73;;;16.80;99.90;;;;;;5078449;28;20123;-57
2022/09/08 08:36:23;;;;;;;29.45;23.75;;;16.90;99.90;;;;;;5078256;28;20044;-57
2022/09/08 08:39:15;;;;;;;23.23;18.85;;;16.90;99.90;;;;;;5091117;28;20111;-57
2022/09/08 08:41:59;;;;;;;24.70;19.23;;;16.80;99.90;;;;;;5095804;28;20052;-57
2022/09/08 08:44:31;;;;;;;21.38;16.65;;;16.90;99.90;;;;;;5096851;28;20051;-57
2022/09/08 08:47:06;;;;;;;21.00;15.35;;;16.80;99.90;;;;;;5097896;28;20047;-57
2022/09/08 08:49:53;;;;;;;17.25;13.75;;;16.80;99.90;;;;;;5098079;28;20499;-56
2022/09/08 08:52:43;;;;;;;18.45;13.68;;;16.70;99.90;;;;;;5097771;28;20059;-56
2022/09/08 08:55:25;;;;;;;29.95;16.13;;;16.70;99.90;;;;;;5098307;28;20075;-55
2022/09/08 08:58:22;;;;;;;17.13;13.25;;;16.60;99.90;;;;;;5098290;28;20060;-55
2022/09/08 09:01:15;;;;;;;16.15;11.55;;;16.50;99.90;;;;;;5097430;28;20533;-55
2022/09/08 09:04:13;;;;;;;15.80;11.30;;;16.40;99.90;;;;;;5098137;28;20550;-56
2022/09/08 09:07:03;;;;;;;14.52;10.98;;;16.40;99.90;;;;;;5098060;28;20074;-55
2022/09/08 09:09:54;;;;;;;14.63;10.85;;;16.40;99.90;;;;;;5097161;28;20067;-53
2022/09/08 09:13:02;;;;;;;16.13;11.43;;;16.50;99.90;;;;;;5097958;28;20048;-53
2022/09/08 09:15:30;;;;;;;16.48;12.35;;;16.60;99.90;;;;;;5086941;28;20056;-53
2022/09/08 09:18:04;;;;;;;16.48;12.50;;;16.60;99.90;;;;;;5079647;28;20106;-52
2022/09/08 09:20:55;;;;;;;12.05;8.50;;;16.60;99.90;;;;;;5076509;28;20049;-53
2022/09/08 09:23:41;;;;;;;9.20;6.95;;;16.60;99.90;;;;;;5057190;28;20108;-54
2022/09/08 09:26:19;;;;;;;8.30;5.70;;;16.40;99.90;;;;;;5076663;28;20079;-54
2022/09/08 09:28:51;;;;;;;8.85;5.15;;;16.50;99.90;;;;;;5077551;28;20044;-53
2022/09/08 09:31:53;;;;;;;7.80;5.15;;;16.50;99.90;;;;;;5077066;28;20186;-52
2022/09/08 09:34:44;;;;;;;7.70;4.20;;;16.60;99.90;;;;;;5034240;28;20049;-53
2022/09/08 09:37:28;;;;;;;8.45;4.65;;;16.60;99.90;;;;;;5051513;28;20947;-52
2022/09/08 09:40:29;;;;;;;7.60;4.43;;;16.90;99.90;;;;;;5076933;28;20048;-53
2022/09/08 09:43:21;;;;;;;8.00;4.65;;;16.90;99.90;;;;;;5040177;28;20057;-53
2022/09/08 09:46:48;;;;;;;7.35;4.05;;;17.00;99.90;;;;;;5077681;28;20052;-53
2022/09/08 09:49:58;;;;;;;9.02;4.68;;;17.10;99.90;;;;;;5077450;28;20074;-51
2022/09/08 09:52:36;;;;;;;7.15;4.20;;;17.20;99.90;;;;;;5076987;28;20083;-52
2022/09/08 09:55:17;;;;;;;8.07;4.90;;;17.10;99.90;;;;;;5077493;28;20056;-53
2022/09/08 09:58:20;;;;;;;7.15;4.40;;;17.10;99.90;;;;;;5077213;28;20040;-53
2022/09/08 10:00:52;;;;;;;8.55;5.82;;;17.20;99.90;;;;;;5076626;28;20067;-53
2022/09/08 10:04:00;;;;;;;9.15;6.53;;;17.20;99.90;;;;;;5077791;28;20052;-54
2022/09/08 10:06:31;;;;;;;9.88;7.30;;;17.10;99.90;;;;;;5074102;28;20511;-54
2022/09/08 10:09:29;;;;;;;9.55;7.43;;;17.00;99.90;;;;;;5075121;28;20343;-55
2022/09/08 10:12:55;;;;;;;11.02;8.30;;;17.10;99.90;;;;;;5068464;28;20060;-54
2022/09/08 10:15:35;;;;;;;10.38;8.27;;;17.20;99.90;;;;;;5057424;28;20064;-54
2022/09/08 10:18:39;;;;;;;11.52;8.80;;;17.30;99.90;;;;;;5095566;28;20046;-53
2022/09/08 10:21:42;;;;;;;10.93;7.90;;;17.20;99.90;;;;;;5080627;28;20048;-54
2022/09/08 10:24:40;;;;;;;10.38;7.78;;;17.20;99.90;;;;;;5094234;28;20052;-53
2022/09/08 10:27:20;;;;;;;9.95;7.15;;;17.30;99.90;;;;;;5099965;28;20145;-53
2022/09/08 10:30:19;;;;;;;9.85;7.13;;;17.30;99.90;;;;;;5100262;28;20500;-50
2022/09/08 10:33:08;;;;;;;9.27;7.50;;;17.40;99.90;;;;;;5100644;28;20403;-53
2022/09/08 10:36:06;;;;;;;8.93;6.43;;;17.40;99.90;;;;;;5100149;28;20044;-52
2022/09/08 10:38:56;;;;;;;9.18;6.57;;;17.30;99.90;;;;;;5067457;28;20061;-52
2022/09/08 10:41:39;;;;;;;9.40;7.43;;;17.40;99.90;;;;;;5080539;28;20052;-53
2022/09/08 10:44:33;;;;;;;9.45;7.30;;;17.40;99.90;;;;;;5079784;28;20076;-51
2022/09/08 10:47:07;;;;;;;8.60;6.03;;;17.40;99.90;;;;;;5079603;28;20049;-54
2022/09/08 10:50:28;;;;;;;7.90;5.70;;;17.40;99.90;;;;;;5080045;28;20151;-54
2022/09/08 10:52:56;;;;;;;8.57;5.80;;;17.40;99.90;;;;;;5037478;28;20050;-54
2022/09/08 10:55:46;;;;;;;8.98;6.05;;;17.40;99.90;;;;;;5071792;28;20067;-56
2022/09/08 10:58:24;;;;;;;7.47;4.97;;;17.30;99.90;;;;;;5079884;28;20139;-55
2022/09/08 11:01:07;;;;;;;9.40;5.95;;;17.20;99.90;;;;;;5079297;28;20041;-56
2022/09/08 11:03:48;;;;;;;8.20;5.22;;;17.30;99.90;;;;;;5080083;28;20055;-56
2022/09/08 11:06:34;;;;;;;8.27;5.55;;;17.10;99.90;;;;;;5079460;28;20561;-56
2022/09/08 11:09:42;;;;;;;8.30;5.90;;;17.10;99.90;;;;;;5076710;28;20076;-56
2022/09/08 11:12:29;;;;;;;8.63;5.78;;;17.20;99.90;;;;;;5079923;28;20056;-55
2022/09/08 11:15:32;;;;;;;8.63;5.72;;;17.30;99.90;;;;;;5079626;28;20098;-56
2022/09/08 11:18:34;;;;;;;8.70;5.90;;;17.20;99.90;;;;;;5095833;28;20055;-56
2022/09/08 11:21:03;;;;;;;8.88;5.60;;;17.40;99.90;;;;;;5098913;28;20040;-55
2022/09/08 11:23:44;;;;;;;8.35;5.85;;;17.30;99.90;;;;;;5099044;28;20523;-55
2022/09/08 11:26:35;;;;;;;7.78;5.68;;;17.30;99.90;;;;;;5098399;28;20040;-55
2022/09/08 11:29:09;;;;;;;8.63;4.93;;;17.40;99.90;;;;;;5099486;28;20052;-55
2022/09/08 11:32:04;;;;;;;8.07;5.85;;;17.50;99.90;;;;;;5098236;28;20127;-55
2022/09/08 11:34:36;;;;;;;7.38;4.72;;;17.40;99.90;;;;;;5098992;28;20044;-55
2022/09/08 11:37:42;;;;;;;7.57;4.38;;;17.40;99.90;;;;;;5099671;28;20052;-55
2022/09/08 11:40:45;;;;;;;6.03;3.90;;;17.40;99.90;;;;;;5078951;28;20053;-54
2022/09/08 11:43:41;;;;;;;7.07;3.90;;;17.40;99.90;;;;;;5078462;28;20550;-55
2022/09/08 11:46:35;;;;;;;7.03;3.63;;;17.40;99.90;;;;;;5079393;28;20253;-55
2022/09/08 11:49:19;;;;;;;7.15;3.65;;;17.50;99.90;;;;;;5078851;28;20044;-55
2022/09/08 11:52:10;;;;;;;6.90;3.97;;;17.40;99.90;;;;;;5078298;28;20044;-55
2022/09/08 11:55:14;;;;;;;6.78;3.92;;;17.20;99.90;;;;;;5079277;28;20063;-54
2022/09/08 11:58:06;;;;;;;7.38;3.92;;;17.40;99.90;;;;;;5069982;28;20663;-54
2022/09/08 12:00:52;;;;;;;;;;;17.20;99.90;;;;;;5078656;28;20504;-55
2022/09/08 12:04:05;;;;;;;8.85;3.83;;;17.30;99.90;;;;;;5047350;28;19925;-55
2022/09/08 12:06:51;;;;;;;6.60;3.80;;;17.20;99.90;;;;;;5039280;28;20067;-54
2022/09/08 12:09:26;;;;;;;7.57;3.60;;;17.20;99.90;;;;;;5055057;28;20045;-54
2022/09/08 12:12:11;;;;;;;7.15;3.58;;;17.30;99.90;;;;;;5072690;28;20056;-54
2022/09/08 12:15:14;;;;;;;7.25;3.70;;;17.40;99.90;;;;;;5078394;28;20055;-54
2022/09/08 12:17:58;;;;;;;7.32;4.05;;;17.30;99.90;;;;;;5092927;28;20048;-54
2022/09/08 12:20:27;;;;;;;6.90;3.20;;;17.40;99.90;;;;;;5099203;28;20578;-54
2022/09/08 12:23:04;;;;;;;7.18;3.40;;;17.50;99.90;;;;;;5098682;28;20036;-54
2022/09/08 12:26:07;;;;;;;7.05;3.22;;;17.40;99.90;;;;;;5098241;28;20048;-56
2022/09/08 12:28:42;;;;;;;6.45;3.40;;;17.40;99.90;;;;;;5098941;28;20101;-56
2022/09/08 12:31:34;;;;;;;7.55;3.83;;;17.40;99.90;;;;;;5098433;28;20047;-56
2022/09/08 12:34:18;;;;;;;7.07;3.75;;;17.40;99.90;;;;;;5098194;28;20110;-56
2022/09/08 12:36:49;;;;;;;6.97;4.00;;;17.40;99.90;;;;;;5097755;28;20082;-56
2022/09/08 12:39:52;;;;;;;7.70;4.35;;;17.40;99.90;;;;;;5097538;28;20067;-55
2022/09/08 12:42:57;;;;;;;7.95;4.32;;;17.30;99.90;;;;;;5098189;28;20054;-55
2022/09/08 12:45:26;;;;;;;10.07;4.25;;;17.40;99.90;;;;;;5094218;28;20044;-53
2022/09/08 12:48:02;;;;;;;8.20;4.72;;;17.50;99.90;;;;;;5097698;28;20044;-53
2022/09/08 12:50:37;;;;;;;8.55;4.80;;;17.50;99.90;;;;;;5098378;28;20591;-53
2022/09/08 12:53:30;;;;;;;8.45;4.95;;;17.40;99.90;;;;;;5098254;28;20063;-53
2022/09/08 12:56:11;;;;;;;8.75;4.85;;;17.50;99.90;;;;;;5096531;28;20051;-53
2022/09/08 12:58:42;;;;;;;8.68;5.13;;;17.50;99.90;;;;;;5098197;28;20048;-51
2022/09/08 13:01:23;;;;;;;7.97;4.82;;;17.60;99.90;;;;;;5097624;28;20048;-52
2022/09/08 13:03:57;;;;;;;10.37;5.47;;;17.50;99.90;;;;;;5097981;28;20044;-52
2022/09/08 13:06:55;;;;;;;8.98;5.40;;;17.50;99.90;;;;;;5098071;28;20044;-53
2022/09/08 13:09:29;;;;;;;9.70;5.32;;;17.50;99.90;;;;;;5097103;28;20107;-51
2022/09/08 13:12:14;;;;;;;8.00;5.93;;;17.60;99.90;;;;;;5098348;28;20105;-52
2022/09/08 13:15:11;;;;;;;9.07;5.53;;;17.50;99.90;;;;;;5096960;28;20044;-51
2022/09/08 13:17:44;;;;;;;10.32;5.60;;;17.50;99.90;;;;;;5077480;28;20056;-52
2022/09/08 13:20:23;;;;;;;9.60;5.95;;;17.50;99.90;;;;;;5078132;28;20044;-53
2022/09/08 13:23:01;;;;;;;9.30;5.90;;;17.50;99.90;;;;;;5077622;28;20044;-51
2022/09/08 13:25:35;;;;;;;8.70;6.00;;;17.40;99.90;;;;;;5076126;28;20469;-51
2022/09/08 13:28:23;;;;;;;7.68;5.20;;;17.50;99.90;;;;;;5077613;28;20101;-50